Time;durP1;ratioP1;P1;durP2;ratioP2;P2;SDS_P1;SDS_P2;PMS_P1;PMS_P2;Temp;Humidity;BMP_temperature;BMP_pressure;BME280_temperature;BME280_humidity;BME280_pressure;Samples;Min_cycle;Max_cycle;Signal;HPM_P1;HPM_P2
2021/06/13 00:01:02;;;;;;;8.55;6.15;;;20.00;70.20;;;;;;1853479;77;21036;-51
2021/06/13 00:03:32;;;;;;;9.58;6.70;;;20.00;70.10;;;;;;1855338;77;21110;-52
2021/06/13 00:06:01;;;;;;;10.45;6.28;;;20.00;70.30;;;;;;1904957;75;21078;-52
2021/06/13 00:08:31;;;;;;;7.85;6.50;;;20.00;70.40;;;;;;1904911;75;21019;-52
2021/06/13 00:11:01;;;;;;;11.10;6.83;;;19.90;70.20;;;;;;1904873;75;21069;-53
2021/06/13 00:13:31;;;;;;;11.65;5.90;;;19.90;70.40;;;;;;1904922;75;21000;-53
2021/06/13 00:16:00;;;;;;;7.83;6.00;;;19.90;70.40;;;;;;1904986;75;21019;-53
2021/06/13 00:18:29;;;;;;;7.50;6.10;;;19.90;70.60;;;;;;1904927;75;21097;-52
2021/06/13 00:20:59;;;;;;;7.00;6.22;;;19.80;70.50;;;;;;1904865;75;21101;-52
2021/06/13 00:23:28;;;;;;;9.23;6.78;;;19.80;70.10;;;;;;1905005;75;21023;-54
2021/06/13 00:25:58;;;;;;;7.25;6.50;;;19.70;69.90;;;;;;1904901;75;21122;-52
2021/06/13 00:28:27;;;;;;;5.53;4.90;;;19.50;70.10;;;;;;1904988;75;21023;-53
2021/06/13 00:30:57;;;;;;;6.72;5.92;;;19.40;70.20;;;;;;1904922;75;21011;-52
2021/06/13 00:33:27;;;;;;;7.53;5.95;;;19.40;70.70;;;;;;1904839;74;21077;-53
2021/06/13 00:35:56;;;;;;;7.78;6.42;;;19.40;70.90;;;;;;1904865;75;21008;-51
2021/06/13 00:38:26;;;;;;;11.70;6.47;;;19.40;70.90;;;;;;1905079;75;21022;-53
2021/06/13 00:40:55;;;;;;;8.60;7.25;;;19.40;70.80;;;;;;1905068;75;21077;-52
2021/06/13 00:43:25;;;;;;;9.53;6.78;;;19.40;70.60;;;;;;1905142;74;21055;-52
2021/06/13 00:45:54;;;;;;;9.80;7.42;;;19.30;70.40;;;;;;1905002;75;21093;-51
2021/06/13 00:48:24;;;;;;;10.70;6.83;;;19.30;70.60;;;;;;1905043;75;21000;-52
2021/06/13 00:50:55;;;;;;;9.30;7.17;;;19.30;70.90;;;;;;1904887;74;21019;-51
2021/06/13 00:53:26;;;;;;;11.20;7.70;;;19.20;71.00;;;;;;1904983;74;21019;-52
2021/06/13 00:55:59;;;;;;;9.63;7.03;;;19.20;71.00;;;;;;1904597;74;21474;-52
2021/06/13 00:58:29;;;;;;;9.08;7.42;;;19.20;71.10;;;;;;1904988;75;21019;-52
2021/06/13 01:00:59;;;;;;;10.28;7.37;;;19.20;71.30;;;;;;1904819;75;21103;-53
2021/06/13 01:03:30;;;;;;;10.53;6.60;;;19.20;71.40;;;;;;1904659;74;21047;-51
2021/06/13 01:06:00;;;;;;;8.20;7.10;;;19.20;71.70;;;;;;1905058;75;21082;-52
2021/06/13 01:08:41;;;;;;;10.18;7.62;;;19.20;71.70;;;;;;1904980;75;21000;-52
2021/06/13 01:11:13;;;;;;;8.95;6.75;;;19.20;71.60;;;;;;1904794;74;20999;-51
2021/06/13 01:13:49;;;;;;;8.35;6.03;;;19.10;71.70;;;;;;1904944;74;21116;-52
2021/06/13 01:16:22;;;;;;;;;;;19.10;71.80;;;;;;1901652;75;21074;-53
2021/06/13 01:18:54;;;;;;;11.75;6.42;;;19.20;71.60;;;;;;1904627;74;20105;-52
2021/06/13 01:21:26;;;;;;;10.28;6.60;;;19.20;71.20;;;;;;1905029;74;21071;-52
2021/06/13 01:24:19;;;;;;;10.53;6.62;;;19.20;71.10;;;;;;1904957;75;21077;-53
2021/06/13 01:27:12;;;;;;;9.45;6.40;;;19.20;71.10;;;;;;1869220;74;21125;-51
2021/06/13 01:29:49;;;;;;;11.15;7.50;;;19.20;71.40;;;;;;1905016;75;21048;-50
2021/06/13 01:32:21;;;;;;;8.18;6.50;;;19.20;71.40;;;;;;1904928;75;21085;-52
2021/06/13 01:35:10;;;;;;;7.53;6.00;;;19.20;71.40;;;;;;1904901;75;21020;-52
2021/06/13 01:37:42;;;;;;;9.88;6.53;;;19.20;71.50;;;;;;1904971;75;21024;-52
2021/06/13 01:40:13;;;;;;;7.05;6.35;;;19.20;71.40;;;;;;1904800;75;21023;-52
2021/06/13 01:42:47;;;;;;;9.68;6.25;;;19.20;71.30;;;;;;1904321;75;21113;-51
2021/06/13 01:45:20;;;;;;;7.67;6.12;;;19.20;71.20;;;;;;1905011;75;21165;-52
2021/06/13 01:47:51;;;;;;;9.63;6.80;;;19.20;71.00;;;;;;1905198;75;21020;-52
2021/06/13 01:50:26;;;;;;;9.63;6.60;;;19.00;70.60;;;;;;1905049;74;21023;-52
2021/06/13 01:52:58;;;;;;;11.55;6.92;;;18.90;71.00;;;;;;1904999;75;21015;-52
2021/06/13 01:55:27;;;;;;;8.30;6.25;;;18.70;71.40;;;;;;1904955;74;21081;-51
2021/06/13 01:57:58;;;;;;;14.23;6.72;;;18.60;71.80;;;;;;1905122;75;21109;-52
2021/06/13 02:00:30;;;;;;;8.98;6.22;;;18.60;72.20;;;;;;1864541;74;21046;-52
2021/06/13 02:03:02;;;;;;;11.20;6.47;;;18.60;72.40;;;;;;1905902;74;21104;-52
2021/06/13 02:05:39;;;;;;;7.60;6.25;;;18.60;72.60;;;;;;1917318;73;21034;-52
2021/06/13 02:08:10;;;;;;;8.50;5.87;;;18.60;72.20;;;;;;1881739;76;21026;-52
2021/06/13 02:10:43;;;;;;;8.40;5.95;;;18.60;72.40;;;;;;1918289;74;21063;-52
2021/06/13 02:13:14;;;;;;;5.40;4.90;;;18.60;72.60;;;;;;1918289;75;21077;-52
2021/06/13 02:15:44;;;;;;;6.47;5.85;;;18.70;72.70;;;;;;1881749;76;21065;-51
2021/06/13 02:18:15;;;;;;;6.30;5.28;;;18.70;72.80;;;;;;1918345;74;21070;-51
2021/06/13 02:20:44;;;;;;;7.17;5.42;;;18.80;72.80;;;;;;1881717;76;21069;-51
2021/06/13 02:23:16;;;;;;;6.83;5.35;;;18.90;72.60;;;;;;1918391;75;21441;-52
2021/06/13 02:25:46;;;;;;;5.83;5.30;;;19.10;72.30;;;;;;1881746;76;21025;-52
2021/06/13 02:28:16;;;;;;;5.87;5.00;;;19.20;71.70;;;;;;1918393;75;21027;-52
2021/06/13 02:30:49;;;;;;;6.25;5.65;;;19.20;71.20;;;;;;1847736;76;21112;-52
2021/06/13 02:33:20;;;;;;;8.23;6.20;;;19.20;71.10;;;;;;1918465;74;21062;-52
2021/06/13 02:35:52;;;;;;;6.20;5.60;;;19.20;70.80;;;;;;1881820;76;21030;-52
2021/06/13 02:38:22;;;;;;;10.40;5.72;;;19.10;70.90;;;;;;1918367;75;21033;-52
2021/06/13 02:40:54;;;;;;;9.23;5.12;;;19.10;71.00;;;;;;1917799;73;21038;-52
2021/06/13 02:43:24;;;;;;;6.45;5.75;;;19.10;71.40;;;;;;1881793;76;21157;-52
2021/06/13 02:45:53;;;;;;;6.95;5.25;;;19.10;71.40;;;;;;1918244;73;21019;-51
2021/06/13 02:48:24;;;;;;;11.35;5.17;;;19.10;71.10;;;;;;1881715;76;21132;-52
2021/06/13 02:50:56;;;;;;;5.45;4.95;;;19.20;71.10;;;;;;1918398;74;21074;-52
2021/06/13 02:53:42;;;;;;;5.92;4.95;;;19.20;71.30;;;;;;1918237;75;21080;-52
2021/06/13 02:56:26;;;;;;;9.75;5.47;;;19.30;71.90;;;;;;1914651;74;21113;-50
2021/06/13 02:59:20;;;;;;;6.33;5.17;;;19.40;71.10;;;;;;1881690;76;21025;-51
2021/06/13 03:01:51;;;;;;;9.60;6.00;;;19.50;71.10;;;;;;1918511;74;21046;-52
2021/06/13 03:04:22;;;;;;;6.87;5.90;;;19.60;70.70;;;;;;1876389;76;21058;-51
2021/06/13 03:06:56;;;;;;;8.05;5.90;;;19.50;70.50;;;;;;1904920;74;21016;-51
2021/06/13 03:09:28;;;;;;;8.20;6.37;;;19.50;70.90;;;;;;1904396;74;21028;-52
2021/06/13 03:11:58;;;;;;;8.83;6.05;;;19.50;71.10;;;;;;1903974;74;21565;-53
2021/06/13 03:14:31;;;;;;;7.00;6.12;;;19.70;71.20;;;;;;1904896;75;21023;-51
2021/06/13 03:17:01;;;;;;;10.30;7.30;;;19.80;71.00;;;;;;1892319;75;21003;-53
2021/06/13 03:19:32;;;;;;;9.53;6.20;;;19.90;71.00;;;;;;1905116;75;21021;-52
2021/06/13 03:22:03;;;;;;;9.00;6.47;;;20.00;70.90;;;;;;1904951;75;21016;-51
2021/06/13 03:24:34;;;;;;;15.93;7.97;;;20.10;70.80;;;;;;1905005;75;21016;-52
2021/06/13 03:27:05;;;;;;;16.97;7.65;;;20.20;70.40;;;;;;1904883;75;21015;-53
2021/06/13 03:29:39;;;;;;;15.65;8.68;;;20.30;70.30;;;;;;1904954;74;21016;-51
2021/06/13 03:32:10;;;;;;;16.30;10.95;;;20.40;70.20;;;;;;1905164;75;21004;-53
2021/06/13 03:34:42;;;;;;;21.75;13.38;;;20.40;70.10;;;;;;1904907;75;21031;-52
2021/06/13 03:37:13;;;;;;;41.25;21.12;;;20.50;70.20;;;;;;1904921;74;21031;-52
2021/06/13 03:39:45;;;;;;;42.40;19.40;;;20.60;70.10;;;;;;1905139;74;21097;-52
2021/06/13 03:42:15;;;;;;;34.53;18.23;;;20.70;69.70;;;;;;1905051;75;21028;-51
2021/06/13 03:44:47;;;;;;;34.15;16.77;;;20.80;69.50;;;;;;1904912;75;21039;-52
2021/06/13 03:47:17;;;;;;;25.52;13.80;;;20.90;69.20;;;;;;1904926;75;21031;-51
2021/06/13 03:49:49;;;;;;;21.57;11.33;;;20.90;69.20;;;;;;1904884;75;21015;-51
2021/06/13 03:52:20;;;;;;;19.98;10.78;;;21.00;69.20;;;;;;1905069;74;21438;-52
2021/06/13 03:54:50;;;;;;;21.05;10.93;;;21.10;69.30;;;;;;1904872;75;21081;-51
2021/06/13 03:57:20;;;;;;;20.72;10.63;;;21.20;69.30;;;;;;1904986;74;21019;-51
2021/06/13 03:59:50;;;;;;;16.05;10.85;;;21.40;69.40;;;;;;1904960;75;21019;-52
2021/06/13 04:02:21;;;;;;;23.57;12.45;;;21.50;69.30;;;;;;1904904;74;21024;-52
2021/06/13 04:04:52;;;;;;;21.12;11.45;;;21.80;69.20;;;;;;1905155;74;21023;-51
2021/06/13 04:07:22;;;;;;;22.77;10.68;;;21.90;68.80;;;;;;1905604;75;21040;-52
2021/06/13 04:09:51;;;;;;;21.15;10.40;;;22.10;68.60;;;;;;1905416;75;21019;-51
2021/06/13 04:12:22;;;;;;;15.25;9.13;;;22.20;68.00;;;;;;1905544;75;21015;-51
2021/06/13 04:14:53;;;;;;;15.03;8.43;;;22.30;67.70;;;;;;1905444;75;21028;-51
2021/06/13 04:17:23;;;;;;;12.70;8.08;;;22.40;67.60;;;;;;1905637;75;21209;-52
2021/06/13 04:19:53;;;;;;;10.68;8.23;;;22.40;67.50;;;;;;1905539;75;21139;-52
2021/06/13 04:22:23;;;;;;;15.68;8.10;;;22.50;67.40;;;;;;1905624;75;21008;-53
2021/06/13 04:24:54;;;;;;;13.95;8.33;;;22.50;67.20;;;;;;1905476;75;20999;-53
2021/06/13 04:27:24;;;;;;;10.08;7.53;;;22.50;66.90;;;;;;1905497;75;21085;-52
2021/06/13 04:29:55;;;;;;;11.08;7.75;;;22.50;67.20;;;;;;1905551;75;21004;-52
2021/06/13 04:32:26;;;;;;;10.53;7.33;;;22.60;67.20;;;;;;1905517;74;21462;-51
2021/06/13 04:34:55;;;;;;;11.78;8.15;;;22.70;66.80;;;;;;1905478;75;21009;-53
2021/06/13 04:37:25;;;;;;;17.07;11.60;;;22.80;66.80;;;;;;1905556;75;21095;-53
2021/06/13 04:39:55;;;;;;;14.50;9.93;;;22.80;66.40;;;;;;1905470;75;21183;-52
2021/06/13 04:42:24;;;;;;;17.00;9.75;;;22.90;66.40;;;;;;1905638;75;21077;-52
2021/06/13 04:44:54;;;;;;;14.30;9.05;;;22.90;66.50;;;;;;1905549;75;21027;-53
2021/06/13 04:47:24;;;;;;;15.28;9.15;;;23.10;66.40;;;;;;1905553;75;21004;-52
2021/06/13 04:49:55;;;;;;;16.85;8.35;;;23.20;66.20;;;;;;1892721;75;20999;-52
2021/06/13 04:52:26;;;;;;;15.23;9.10;;;23.20;66.00;;;;;;1905467;75;21093;-51
2021/06/13 04:55:14;;;;;;;10.40;7.87;;;23.40;65.40;;;;;;1905605;75;21509;-53
2021/06/13 04:57:52;;;;;;;11.53;8.63;;;23.40;65.30;;;;;;1905546;75;21032;-53
2021/06/13 05:00:22;;;;;;;11.28;7.47;;;23.50;64.90;;;;;;1905349;74;21023;-53
2021/06/13 05:02:51;;;;;;;10.55;8.50;;;23.50;64.60;;;;;;1905364;75;21039;-53
2021/06/13 05:05:21;;;;;;;10.85;7.65;;;23.50;64.60;;;;;;1909852;75;21137;-52
2021/06/13 05:07:50;;;;;;;15.50;8.75;;;23.60;64.80;;;;;;1918230;75;21105;-52
2021/06/13 05:10:20;;;;;;;11.83;8.48;;;23.70;64.90;;;;;;1918114;75;21112;-52
2021/06/13 05:12:53;;;;;;;10.72;7.67;;;23.80;64.60;;;;;;1918368;73;21018;-52
2021/06/13 05:15:23;;;;;;;12.15;6.58;;;23.90;64.20;;;;;;1918158;75;21071;-53
2021/06/13 05:17:53;;;;;;;12.35;6.75;;;24.00;64.00;;;;;;1918357;75;21023;-53
2021/06/13 05:20:22;;;;;;;11.50;6.17;;;24.00;63.90;;;;;;1918249;75;21018;-52
2021/06/13 05:22:57;;;;;;;10.35;6.00;;;24.00;63.90;;;;;;1918242;74;21019;-52
2021/06/13 05:25:29;;;;;;;10.20;6.20;;;24.10;63.60;;;;;;1918142;75;21074;-52
2021/06/13 05:27:59;;;;;;;7.22;5.37;;;24.10;63.30;;;;;;1918136;75;21097;-52
2021/06/13 05:30:30;;;;;;;6.05;5.45;;;24.20;63.10;;;;;;1881592;75;21100;-53
2021/06/13 05:33:00;;;;;;;6.42;5.47;;;24.30;63.00;;;;;;1918290;75;21019;-53
2021/06/13 05:35:29;;;;;;;5.90;5.22;;;24.30;62.50;;;;;;1918406;75;21035;-53
2021/06/13 05:37:59;;;;;;;9.65;5.05;;;24.50;62.50;;;;;;1918442;75;21034;-53
2021/06/13 05:40:30;;;;;;;10.28;5.42;;;24.60;62.20;;;;;;1881599;76;21002;-51
2021/06/13 05:42:59;;;;;;;8.10;5.20;;;24.80;61.90;;;;;;1918289;75;21105;-52
2021/06/13 05:45:30;;;;;;;7.08;4.72;;;24.90;61.30;;;;;;1881647;76;21104;-52
2021/06/13 05:47:59;;;;;;;8.48;4.85;;;25.00;60.90;;;;;;1918301;75;20999;-53
2021/06/13 05:50:30;;;;;;;8.05;5.70;;;25.10;60.80;;;;;;1881652;76;21002;-51
2021/06/13 05:52:59;;;;;;;5.12;3.75;;;25.20;60.60;;;;;;1918245;73;21084;-51
2021/06/13 05:55:29;;;;;;;4.92;4.47;;;25.30;60.10;;;;;;1881655;76;21091;-53
2021/06/13 05:57:59;;;;;;;4.95;4.47;;;25.40;59.90;;;;;;1895366;75;21077;-53
2021/06/13 06:00:33;;;;;;;4.78;4.20;;;25.40;59.40;;;;;;1881578;76;21073;-53
2021/06/13 06:03:03;;;;;;;4.78;4.17;;;25.40;59.40;;;;;;1918374;75;21019;-51
2021/06/13 06:05:34;;;;;;;5.45;4.40;;;25.40;59.60;;;;;;1915720;74;21533;-53
2021/06/13 06:08:04;;;;;;;4.05;3.37;;;25.40;59.60;;;;;;1869268;77;21026;-50
2021/06/13 06:10:34;;;;;;;3.60;3.30;;;25.50;58.90;;;;;;1853545;77;21040;-51
2021/06/13 06:13:04;;;;;;;3.47;2.72;;;25.60;58.70;;;;;;1853602;77;21098;-51
2021/06/13 06:15:36;;;;;;;3.92;3.35;;;25.70;58.00;;;;;;1853604;77;21130;-53
2021/06/13 06:18:06;;;;;;;4.85;4.42;;;25.80;57.50;;;;;;1853676;77;21036;-52
2021/06/13 06:20:36;;;;;;;3.83;3.05;;;25.80;57.20;;;;;;1853594;77;21101;-52
2021/06/13 06:23:06;;;;;;;6.58;3.42;;;25.80;57.70;;;;;;1853502;77;21098;-52
2021/06/13 06:25:35;;;;;;;3.37;3.08;;;25.90;57.80;;;;;;1853527;77;21107;-52
2021/06/13 06:28:05;;;;;;;7.20;3.30;;;26.00;57.60;;;;;;1853487;77;21031;-53
2021/06/13 06:30:34;;;;;;;3.40;3.10;;;26.10;57.30;;;;;;1853572;77;21097;-52
2021/06/13 06:33:03;;;;;;;5.83;3.85;;;26.10;57.20;;;;;;1853563;77;21035;-52
2021/06/13 06:35:33;;;;;;;4.70;3.30;;;26.20;56.60;;;;;;1853468;77;21094;-52
2021/06/13 06:38:02;;;;;;;8.00;3.72;;;26.30;56.70;;;;;;1853643;77;21031;-53
2021/06/13 06:40:31;;;;;;;6.10;3.30;;;26.30;56.40;;;;;;1853477;77;21032;-49
2021/06/13 06:43:00;;;;;;;6.00;3.47;;;26.40;56.30;;;;;;1853585;77;21701;-53
2021/06/13 06:45:30;;;;;;;6.12;3.40;;;26.50;56.70;;;;;;1853451;77;21039;-51
2021/06/13 06:48:00;;;;;;;5.55;3.20;;;26.60;56.30;;;;;;1853624;77;21063;-53
2021/06/13 06:50:29;;;;;;;2.85;2.65;;;26.60;55.50;;;;;;1853414;77;21040;-49
2021/06/13 06:52:58;;;;;;;3.17;2.55;;;26.60;55.30;;;;;;1853571;77;21114;-52
2021/06/13 06:55:28;;;;;;;4.60;3.10;;;26.60;55.30;;;;;;1853527;77;21035;-49
2021/06/13 06:57:58;;;;;;;2.75;2.45;;;26.60;55.30;;;;;;1853567;77;21071;-51
2021/06/13 07:00:27;;;;;;;4.25;2.77;;;26.60;55.10;;;;;;1853421;77;21071;-51
2021/06/13 07:02:58;;;;;;;5.55;2.90;;;26.60;54.50;;;;;;1853623;77;21324;-51
2021/06/13 07:05:27;;;;;;;2.58;2.37;;;26.60;53.70;;;;;;1853488;77;21156;-53
2021/06/13 07:07:57;;;;;;;2.60;2.40;;;26.60;53.30;;;;;;1856197;76;21115;-51
2021/06/13 07:10:26;;;;;;;3.37;2.40;;;26.70;52.70;;;;;;1856376;77;21102;-52
2021/06/13 07:12:56;;;;;;;3.22;2.42;;;26.60;52.70;;;;;;1856540;77;21032;-53
2021/06/13 07:15:25;;;;;;;2.40;2.20;;;26.70;52.50;;;;;;1856378;77;21024;-53
2021/06/13 07:17:55;;;;;;;2.17;2.02;;;26.90;51.80;;;;;;1856418;77;21031;-53
2021/06/13 07:20:24;;;;;;;2.87;2.40;;;26.90;51.80;;;;;;1856361;77;21114;-53
2021/06/13 07:22:54;;;;;;;2.60;2.37;;;27.00;51.00;;;;;;1856379;77;21101;-54
2021/06/13 07:25:24;;;;;;;3.30;2.10;;;27.00;50.60;;;;;;1856403;77;21039;-51
2021/06/13 07:27:54;;;;;;;3.98;2.70;;;27.00;50.40;;;;;;1856402;77;21043;-52
2021/06/13 07:30:23;;;;;;;4.47;2.62;;;27.00;50.30;;;;;;1856207;77;21058;-50
2021/06/13 07:32:53;;;;;;;3.10;2.12;;;27.00;49.80;;;;;;1856405;76;21036;-52
2021/06/13 07:35:22;;;;;;;2.98;2.00;;;27.10;49.10;;;;;;1856360;77;21137;-52
2021/06/13 07:37:52;;;;;;;7.67;2.98;;;27.10;49.00;;;;;;1856349;77;21040;-52
2021/06/13 07:40:21;;;;;;;2.40;2.20;;;27.20;49.50;;;;;;1856288;77;21031;-52
2021/06/13 07:42:51;;;;;;;2.40;2.10;;;27.20;49.60;;;;;;1856448;77;21051;-53
2021/06/13 07:45:21;;;;;;;3.12;2.17;;;27.30;49.40;;;;;;1856504;77;21036;-53
2021/06/13 07:47:50;;;;;;;4.30;2.20;;;27.30;49.10;;;;;;1856518;77;21051;-52
2021/06/13 07:50:21;;;;;;;2.30;2.08;;;27.30;49.30;;;;;;1856399;77;21016;-52
2021/06/13 07:52:50;;;;;;;4.85;2.62;;;27.40;49.50;;;;;;1856448;77;21032;-53
2021/06/13 07:55:20;;;;;;;2.50;2.30;;;27.50;49.40;;;;;;1856412;77;21114;-52
2021/06/13 07:57:49;;;;;;;2.60;2.33;;;27.50;49.40;;;;;;1856388;77;21043;-53
2021/06/13 08:00:20;;;;;;;5.92;2.90;;;27.60;49.50;;;;;;1856362;77;21011;-52
2021/06/13 08:02:50;;;;;;;2.15;1.98;;;27.60;49.50;;;;;;1856556;77;21051;-53
2021/06/13 08:05:28;;;;;;;5.87;2.37;;;27.70;49.40;;;;;;1856449;77;21106;-53
2021/06/13 08:08:00;;;;;;;2.40;2.20;;;27.80;49.40;;;;;;1856095;76;21079;-53
2021/06/13 08:10:30;;;;;;;2.62;2.33;;;27.90;49.30;;;;;;1904698;75;21027;-53
2021/06/13 08:12:59;;;;;;;2.55;2.17;;;28.00;49.10;;;;;;1904937;75;21024;-54
2021/06/13 08:15:29;;;;;;;3.35;2.45;;;28.00;48.60;;;;;;1904778;75;21144;-53
2021/06/13 08:17:59;;;;;;;2.33;2.12;;;28.10;48.70;;;;;;1904898;75;21023;-53
2021/06/13 08:20:29;;;;;;;2.65;2.45;;;28.10;48.70;;;;;;1904813;75;21089;-52
2021/06/13 08:22:58;;;;;;;2.33;2.12;;;28.20;48.80;;;;;;1904903;75;21089;-53
2021/06/13 08:25:28;;;;;;;2.72;2.27;;;28.30;48.80;;;;;;1905045;75;21113;-53
2021/06/13 08:27:58;;;;;;;2.60;2.35;;;28.40;49.00;;;;;;1904892;75;21075;-53
2021/06/13 08:30:27;;;;;;;2.40;2.20;;;28.50;48.90;;;;;;1904808;75;21050;-53
2021/06/13 08:32:58;;;;;;;5.25;2.77;;;28.50;48.60;;;;;;1904742;75;21086;-54
2021/06/13 08:35:27;;;;;;;2.30;2.10;;;28.60;48.60;;;;;;1904823;75;21116;-53
2021/06/13 08:38:02;;;;;;;2.70;2.50;;;28.70;48.80;;;;;;1904899;74;21493;-53
2021/06/13 08:40:30;;;;;;;2.50;2.30;;;28.70;48.80;;;;;;1904798;74;21091;-54
2021/06/13 08:43:01;;;;;;;2.30;2.10;;;28.60;48.60;;;;;;1904910;74;21015;-52
2021/06/13 08:45:32;;;;;;;2.45;2.20;;;28.70;48.50;;;;;;1904852;74;21089;-52
2021/06/13 08:48:03;;;;;;;2.62;2.42;;;28.50;47.80;;;;;;1904933;75;21146;-53
2021/06/13 08:50:33;;;;;;;2.85;2.42;;;28.40;48.40;;;;;;1904804;75;21023;-53
2021/06/13 08:53:03;;;;;;;4.25;2.95;;;28.30;48.90;;;;;;1904905;75;21015;-53
2021/06/13 08:55:33;;;;;;;4.62;3.12;;;28.30;49.30;;;;;;1904813;75;21081;-53
2021/06/13 08:58:02;;;;;;;4.05;2.55;;;28.20;49.70;;;;;;1904890;75;21113;-53
2021/06/13 09:00:33;;;;;;;3.20;2.80;;;28.10;51.00;;;;;;1904920;75;21075;-53
2021/06/13 09:03:05;;;;;;;6.37;4.53;;;28.20;50.40;;;;;;1904889;75;21015;-53
2021/06/13 09:05:34;;;;;;;3.87;2.62;;;28.30;50.80;;;;;;1904988;75;21019;-52
2021/06/13 09:08:09;;;;;;;4.37;3.05;;;28.40;51.00;;;;;;1904892;75;21043;-52
2021/06/13 09:10:40;;;;;;;3.22;2.92;;;28.50;51.00;;;;;;1904102;74;21062;-53
2021/06/13 09:13:19;;;;;;;4.08;3.58;;;28.70;50.80;;;;;;1904919;75;21028;-54
2021/06/13 09:15:59;;;;;;;5.10;3.42;;;28.80;50.60;;;;;;1904914;75;21055;-54
2021/06/13 09:18:40;;;;;;;3.90;2.98;;;28.90;50.50;;;;;;1904750;75;21062;-54
2021/06/13 09:21:27;;;;;;;2.95;2.65;;;29.00;50.20;;;;;;1868479;76;21018;-52
2021/06/13 09:23:58;;;;;;;4.80;3.02;;;29.10;49.90;;;;;;1898977;75;21148;-54
2021/06/13 09:26:29;;;;;;;4.85;2.80;;;29.20;49.50;;;;;;1904830;75;21016;-54
2021/06/13 09:28:59;;;;;;;5.10;2.92;;;29.40;49.50;;;;;;1904880;74;21052;-53
2021/06/13 09:31:31;;;;;;;7.40;6.70;;;29.40;49.80;;;;;;1904857;74;21137;-52
2021/06/13 09:34:01;;;;;;;6.92;3.60;;;29.40;49.80;;;;;;1904875;75;21434;-54
2021/06/13 09:36:33;;;;;;;6.90;3.98;;;29.20;49.80;;;;;;1904727;75;21015;-53
2021/06/13 09:39:08;;;;;;;7.03;3.27;;;29.00;49.90;;;;;;1904822;74;21032;-53
2021/06/13 09:41:40;;;;;;;3.92;3.05;;;28.90;50.30;;;;;;1867205;77;21496;-54
2021/06/13 09:44:11;;;;;;;2.67;2.47;;;28.90;50.20;;;;;;1904926;75;21093;-54
2021/06/13 09:46:44;;;;;;;3.02;2.67;;;29.00;50.40;;;;;;1904983;75;21035;-53
2021/06/13 09:49:15;;;;;;;6.05;3.62;;;29.10;50.30;;;;;;1904982;75;20988;-53
2021/06/13 09:51:50;;;;;;;5.70;3.22;;;29.20;50.10;;;;;;1904844;75;21016;-53
2021/06/13 09:54:27;;;;;;;3.72;2.52;;;29.20;49.90;;;;;;1903837;75;21016;-53
2021/06/13 09:56:58;;;;;;;3.20;2.55;;;29.20;49.80;;;;;;1904768;75;21078;-53
2021/06/13 09:59:33;;;;;;;3.33;2.67;;;29.20;49.80;;;;;;1904711;74;21098;-53
2021/06/13 10:02:06;;;;;;;3.87;2.55;;;29.20;50.00;;;;;;1905055;75;21163;-54
2021/06/13 10:04:43;;;;;;;2.75;2.55;;;29.20;49.20;;;;;;1904802;74;21023;-53
2021/06/13 10:07:21;;;;;;;58.13;37.75;;;29.30;49.20;;;;;;1904962;75;21200;-53
2021/06/13 10:09:53;;;;;;;6.33;3.25;;;29.40;49.50;;;;;;1905078;75;21047;-53
2021/06/13 10:12:24;;;;;;;7.03;3.10;;;29.50;50.00;;;;;;1905164;75;21081;-53
2021/06/13 10:14:53;;;;;;;3.60;2.67;;;29.60;49.90;;;;;;1905146;75;21109;-54
2021/06/13 10:17:32;;;;;;;2.70;2.50;;;29.70;49.50;;;;;;1904994;75;20991;-53
2021/06/13 10:20:01;;;;;;;5.53;3.10;;;29.80;49.70;;;;;;1904972;75;20999;-53
2021/06/13 10:22:30;;;;;;;9.30;3.50;;;29.80;49.60;;;;;;1892278;75;21019;-53
2021/06/13 10:25:00;;;;;;;3.45;3.00;;;29.80;49.70;;;;;;1905064;75;21097;-54
2021/06/13 10:27:30;;;;;;;11.30;3.08;;;29.70;49.90;;;;;;1905020;75;21089;-53
2021/06/13 10:30:01;;;;;;;6.05;3.12;;;29.70;50.00;;;;;;1905103;74;21477;-53
2021/06/13 10:32:30;;;;;;;8.98;2.87;;;29.70;49.90;;;;;;1904999;75;21035;-53
2021/06/13 10:35:01;;;;;;;3.77;2.90;;;29.70;50.00;;;;;;1905011;75;21065;-54
2021/06/13 10:37:30;;;;;;;3.87;3.02;;;29.70;49.90;;;;;;1904967;74;21482;-54
2021/06/13 10:40:01;;;;;;;3.60;2.87;;;29.80;50.00;;;;;;1904862;75;21020;-54
2021/06/13 10:42:30;;;;;;;3.25;2.60;;;29.80;49.70;;;;;;1905001;74;21461;-53
2021/06/13 10:45:00;;;;;;;3.00;2.52;;;29.80;49.10;;;;;;1904827;75;21019;-52
2021/06/13 10:47:30;;;;;;;3.30;2.80;;;29.80;49.00;;;;;;1904908;75;21007;-54
2021/06/13 10:50:08;;;;;;;3.05;2.60;;;29.70;49.10;;;;;;1905031;75;21027;-54
2021/06/13 10:52:37;;;;;;;5.10;3.00;;;29.70;49.30;;;;;;1904935;75;21500;-53
2021/06/13 10:55:08;;;;;;;5.37;2.90;;;29.60;49.50;;;;;;1904863;75;21015;-52
2021/06/13 10:57:40;;;;;;;6.30;2.90;;;29.60;49.60;;;;;;1904973;75;21023;-53
2021/06/13 11:00:23;;;;;;;3.58;3.05;;;29.60;49.80;;;;;;1904798;74;21473;-53
2021/06/13 11:03:00;;;;;;;9.30;2.98;;;29.70;49.70;;;;;;1868618;77;21442;-53
2021/06/13 11:05:38;;;;;;;5.00;2.77;;;29.80;49.40;;;;;;1904988;75;21012;-54
2021/06/13 11:08:07;;;;;;;3.02;2.80;;;29.80;49.40;;;;;;1903796;74;21571;-53
2021/06/13 11:10:37;;;;;;;4.45;2.62;;;29.80;49.60;;;;;;1904920;75;21047;-54
2021/06/13 11:13:15;;;;;;;2.87;2.60;;;29.90;49.50;;;;;;1904906;75;21012;-54
2021/06/13 11:15:48;;;;;;;4.53;2.87;;;29.90;49.40;;;;;;1904899;75;21020;-54
2021/06/13 11:18:23;;;;;;;6.40;2.92;;;29.90;49.00;;;;;;1904791;75;21089;-54
2021/06/13 11:21:01;;;;;;;5.40;3.10;;;29.80;49.10;;;;;;1867841;77;21490;-54
2021/06/13 11:23:28;;;;;;;5.15;2.95;;;29.80;49.30;;;;;;1900565;74;21094;-54
2021/06/13 11:26:00;;;;;;;7.30;3.08;;;29.90;49.80;;;;;;1868688;77;21096;-54
2021/06/13 11:28:33;;;;;;;3.22;2.75;;;29.90;49.80;;;;;;1905010;75;21058;-54
2021/06/13 11:31:14;;;;;;;5.80;3.98;;;29.90;49.80;;;;;;1905204;75;21036;-54
2021/06/13 11:33:58;;;;;;;4.25;3.20;;;29.90;49.60;;;;;;1868628;77;21031;-55
2021/06/13 11:36:32;;;;;;;3.90;3.20;;;29.90;49.80;;;;;;1904906;75;21500;-54
2021/06/13 11:39:07;;;;;;;4.12;2.98;;;30.00;49.80;;;;;;1905097;75;21015;-55
2021/06/13 11:41:42;;;;;;;4.65;3.12;;;30.10;49.80;;;;;;1868532;77;21433;-54
2021/06/13 11:44:26;;;;;;;7.47;2.98;;;30.10;49.40;;;;;;1904977;75;21454;-54
2021/06/13 11:46:56;;;;;;;5.12;3.20;;;30.10;49.60;;;;;;1868498;77;21413;-54
2021/06/13 11:49:46;;;;;;;5.25;2.83;;;30.10;49.60;;;;;;1904899;75;21016;-54
2021/06/13 11:52:18;;;;;;;5.75;2.87;;;30.00;49.50;;;;;;1904903;74;21070;-54
2021/06/13 11:54:49;;;;;;;7.95;3.15;;;30.00;49.40;;;;;;1904826;75;21438;-54
2021/06/13 11:57:21;;;;;;;8.10;3.45;;;30.00;49.40;;;;;;1904290;74;21114;-54
2021/06/13 11:59:50;;;;;;;7.37;3.20;;;30.00;49.40;;;;;;1868454;77;21084;-54
2021/06/13 12:02:23;;;;;;;3.90;2.62;;;30.00;49.30;;;;;;1904944;75;21081;-54
2021/06/13 12:04:53;;;;;;;4.20;2.47;;;30.00;48.90;;;;;;1904881;75;21439;-54
2021/06/13 12:07:22;;;;;;;11.95;3.25;;;29.90;49.30;;;;;;1904908;75;21015;-55
2021/06/13 12:09:52;;;;;;;4.65;2.67;;;29.80;49.00;;;;;;1911549;75;21023;-54
2021/06/13 12:12:22;;;;;;;3.47;2.98;;;29.70;48.80;;;;;;1881712;76;21527;-54
2021/06/13 12:14:54;;;;;;;6.10;2.40;;;29.60;48.70;;;;;;1918210;75;20999;-54
2021/06/13 12:17:25;;;;;;;3.35;2.83;;;29.60;48.60;;;;;;1917983;74;21077;-54
2021/06/13 12:20:03;;;;;;;6.00;2.72;;;29.70;48.60;;;;;;1881657;76;21084;-54
2021/06/13 12:23:04;;;;;;;4.08;2.10;;;29.60;48.10;;;;;;1918129;75;21019;-54
2021/06/13 12:28:12;;;;;;;2.30;2.10;;;29.60;48.30;;;;;;1918331;75;21030;-52
2021/06/13 12:30:43;;;;;;;3.72;2.30;;;29.50;48.20;;;;;;1918068;75;21019;-54
2021/06/13 12:33:15;;;;;;;2.50;2.30;;;29.60;48.10;;;;;;1881667;76;21060;-53
2021/06/13 12:35:48;;;;;;;2.50;2.30;;;29.60;48.50;;;;;;1918217;75;21019;-53
2021/06/13 12:38:25;;;;;;;3.00;2.15;;;29.60;48.90;;;;;;1881607;76;21103;-54
2021/06/13 12:40:52;;;;;;;8.65;2.50;;;29.60;48.70;;;;;;1916389;74;20995;-54
2021/06/13 12:43:43;;;;;;;4.28;2.85;;;29.70;49.20;;;;;;1918265;73;21027;-53
2021/06/13 12:46:14;;;;;;;5.30;2.80;;;29.70;49.20;;;;;;1881635;76;21034;-53
2021/06/13 12:48:45;;;;;;;4.95;2.50;;;29.70;49.20;;;;;;1918204;75;21493;-54
2021/06/13 12:51:17;;;;;;;3.55;2.55;;;29.70;49.30;;;;;;1881663;76;20998;-54
2021/06/13 12:53:47;;;;;;;2.80;2.58;;;29.70;49.00;;;;;;1917222;74;21109;-53
2021/06/13 12:56:16;;;;;;;6.55;3.15;;;29.80;49.00;;;;;;1881539;76;21032;-54
2021/06/13 12:58:45;;;;;;;2.98;2.62;;;29.80;49.40;;;;;;1918067;75;21038;-54
2021/06/13 13:01:15;;;;;;;4.15;2.85;;;29.70;49.10;;;;;;1881560;76;21022;-54
2021/06/13 13:03:50;;;;;;;5.65;2.67;;;29.70;49.30;;;;;;1918234;75;21007;-52
2021/06/13 13:06:20;;;;;;;8.03;2.90;;;29.60;49.40;;;;;;1881626;76;21030;-54
2021/06/13 13:08:51;;;;;;;3.70;2.95;;;29.60;49.10;;;;;;1918079;75;21132;-54